sensor_id;sensor_type;location;lat;lon;timestamp;pressure;altitude;pressure_sealevel;temperature;humidity
11936;BME280;6027;48.576;9.180;2023-08-20T00:01:38;97257.91;;;23.08;100.00
11936;BME280;6027;48.576;9.180;2023-08-20T00:04:04;97258.44;;;23.11;100.00
11936;BME280;6027;48.576;9.180;2023-08-20T00:06:30;97260.06;;;23.12;100.00
11936;BME280;6027;48.576;9.180;2023-08-20T00:08:56;97266.00;;;23.08;100.00
11936;BME280;6027;48.576;9.180;2023-08-20T00:11:21;97258.91;;;23.02;100.00
11936;BME280;6027;48.576;9.180;2023-08-20T00:13:46;97260.78;;;23.02;100.00
11936;BME280;6027;48.576;9.180;2023-08-20T00:16:12;97266.44;;;23.00;100.00
11936;BME280;6027;48.576;9.180;2023-08-20T00:18:38;97256.44;;;23.01;100.00
11936;BME280;6027;48.576;9.180;2023-08-20T00:21:05;97263.34;;;22.92;100.00
11936;BME280;6027;48.576;9.180;2023-08-20T00:23:31;97258.41;;;22.84;100.00
11936;BME280;6027;48.576;9.180;2023-08-20T00:25:57;97264.69;;;22.72;100.00
11936;BME280;6027;48.576;9.180;2023-08-20T00:28:22;97264.66;;;22.67;100.00
11936;BME280;6027;48.576;9.180;2023-08-20T00:30:48;97265.06;;;22.59;100.00
11936;BME280;6027;48.576;9.180;2023-08-20T00:33:14;97261.88;;;22.62;100.00
11936;BME280;6027;48.576;9.180;2023-08-20T00:35:40;97265.06;;;22.59;100.00
11936;BME280;6027;48.576;9.180;2023-08-20T00:38:05;97265.06;;;22.59;100.00
11936;BME280;6027;48.576;9.180;2023-08-20T00:40:31;97264.81;;;22.61;100.00
11936;BME280;6027;48.576;9.180;2023-08-20T00:42:56;97263.50;;;22.63;100.00
11936;BME280;6027;48.576;9.180;2023-08-20T00:45:22;97267.25;;;22.62;100.00
11936;BME280;6027;48.576;9.180;2023-08-20T00:47:48;97267.25;;;22.62;100.00
11936;BME280;6027;48.576;9.180;2023-08-20T00:50:14;97265.38;;;22.63;100.00
11936;BME280;6027;48.576;9.180;2023-08-20T00:52:40;97266.03;;;22.53;100.00
11936;BME280;6027;48.576;9.180;2023-08-20T00:55:09;97264.78;;;22.39;100.00
11936;BME280;6027;48.576;9.180;2023-08-20T00:57:35;97263.31;;;22.31;100.00
11936;BME280;6027;48.576;9.180;2023-08-20T01:00:01;97268.97;;;22.30;100.00
11936;BME280;6027;48.576;9.180;2023-08-20T01:02:30;97261.44;;;22.32;100.00
11936;BME280;6027;48.576;9.180;2023-08-20T01:04:55;97262.75;;;22.29;100.00
11936;BME280;6027;48.576;9.180;2023-08-20T01:07:31;97267.97;;;22.36;100.00
11936;BME280;6027;48.576;9.180;2023-08-20T01:10:19;97266.66;;;22.38;100.00
11936;BME280;6027;48.576;9.180;2023-08-20T01:12:48;97268.31;;;22.23;100.00
11936;BME280;6027;48.576;9.180;2023-08-20T01:15:14;97268.41;;;22.11;100.00
11936;BME280;6027;48.576;9.180;2023-08-20T01:17:41;97274.03;;;22.10;100.00
11936;BME280;6027;48.576;9.180;2023-08-20T01:20:08;97272.09;;;22.05;100.00
11936;BME280;6027;48.576;9.180;2023-08-20T01:22:58;97274.53;;;22.07;100.00
11936;BME280;6027;48.576;9.180;2023-08-20T01:28:29;97273.28;;;22.14;100.00
11936;BME280;6027;48.576;9.180;2023-08-20T01:30:59;97271.16;;;22.16;100.00
11936;BME280;6027;48.576;9.180;2023-08-20T01:33:26;97280.91;;;22.17;100.00
11936;BME280;6027;48.576;9.180;2023-08-20T01:35:53;97280.28;;;21.98;100.00
11936;BME280;6027;48.576;9.180;2023-08-20T01:38:19;97284.00;;;21.92;100.00
11936;BME280;6027;48.576;9.180;2023-08-20T01:40:45;97284.28;;;21.96;100.00
11936;BME280;6027;48.576;9.180;2023-08-20T01:43:10;97284.88;;;21.98;100.00
11936;BME280;6027;48.576;9.180;2023-08-20T01:45:36;97288.75;;;22.02;100.00
11936;BME280;6027;48.576;9.180;2023-08-20T01:48:01;97283.69;;;22.05;100.00
11936;BME280;6027;48.576;9.180;2023-08-20T01:50:28;97284.75;;;22.04;100.00
11936;BME280;6027;48.576;9.180;2023-08-20T01:52:54;97279.94;;;22.07;100.00
11936;BME280;6027;48.576;9.180;2023-08-20T01:55:19;97276.91;;;22.03;100.00
11936;BME280;6027;48.576;9.180;2023-08-20T01:57:44;97273.84;;;21.99;100.00
11936;BME280;6027;48.576;9.180;2023-08-20T02:00:11;97280.06;;;22.00;100.00
11936;BME280;6027;48.576;9.180;2023-08-20T02:02:36;97281.22;;;22.04;100.00
11936;BME280;6027;48.576;9.180;2023-08-20T02:05:02;97286.28;;;22.00;100.00
11936;BME280;6027;48.576;9.180;2023-08-20T02:07:28;97284.75;;;22.04;100.00
11936;BME280;6027;48.576;9.180;2023-08-20T02:09:53;97279.84;;;22.01;100.00
11936;BME280;6027;48.576;9.180;2023-08-20T02:12:19;97283.72;;;21.94;100.00
11936;BME280;6027;48.576;9.180;2023-08-20T02:14:44;97280.88;;;21.84;100.00
11936;BME280;6027;48.576;9.180;2023-08-20T02:17:11;97280.63;;;21.85;100.00
11936;BME280;6027;48.576;9.180;2023-08-20T02:19:37;97283.31;;;21.85;100.00
11936;BME280;6027;48.576;9.180;2023-08-20T02:22:03;97286.72;;;21.81;100.00
11936;BME280;6027;48.576;9.180;2023-08-20T02:24:29;97291.47;;;21.74;100.00
11936;BME280;6027;48.576;9.180;2023-08-20T02:26:54;97281.91;;;21.66;100.00
11936;BME280;6027;48.576;9.180;2023-08-20T02:29:19;97280.66;;;21.57;100.00
11936;BME280;6027;48.576;9.180;2023-08-20T02:31:45;97293.56;;;21.55;100.00
11936;BME280;6027;48.576;9.180;2023-08-20T02:34:10;97287.75;;;21.46;100.00
11936;BME280;6027;48.576;9.180;2023-08-20T02:36:36;97283.47;;;21.33;100.00
11936;BME280;6027;48.576;9.180;2023-08-20T02:39:01;97277.97;;;21.28;100.00
11936;BME280;6027;48.576;9.180;2023-08-20T02:41:28;97286.97;;;21.34;100.00
11936;BME280;6027;48.576;9.180;2023-08-20T02:43:54;97288.44;;;21.42;100.00
11936;BME280;6027;48.576;9.180;2023-08-20T02:46:19;97282.81;;;21.43;100.00
11936;BME280;6027;48.576;9.180;2023-08-20T02:48:44;97284.22;;;21.46;100.00
11936;BME280;6027;48.576;9.180;2023-08-20T02:51:10;97280.38;;;21.42;100.00
11936;BME280;6027;48.576;9.180;2023-08-20T02:53:35;97286.44;;;21.49;100.00
11936;BME280;6027;48.576;9.180;2023-08-20T02:58:28;97290.28;;;21.24;100.00
11936;BME280;6027;48.576;9.180;2023-08-20T03:00:54;97287.44;;;21.19;100.00
11936;BME280;6027;48.576;9.180;2023-08-20T03:03:19;97283.28;;;21.12;100.00
11936;BME280;6027;48.576;9.180;2023-08-20T03:05:44;97293.00;;;21.13;100.00
11936;BME280;6027;48.576;9.180;2023-08-20T03:08:10;97289.97;;;21.09;100.00
11936;BME280;6027;48.576;9.180;2023-08-20T03:10:35;97284.69;;;21.14;100.00
11936;BME280;6027;48.576;9.180;2023-08-20T03:13:01;97284.56;;;21.09;100.00
11936;BME280;6027;48.576;9.180;2023-08-20T03:15:30;97287.16;;;21.04;100.00
11936;BME280;6027;48.576;9.180;2023-08-20T03:17:56;97283.28;;;21.00;100.00
11936;BME280;6027;48.576;9.180;2023-08-20T03:20:21;97280.59;;;21.00;100.00
11936;BME280;6027;48.576;9.180;2023-08-20T03:22:47;97284.34;;;20.99;100.00
11936;BME280;6027;48.576;9.180;2023-08-20T03:25:12;97281.41;;;21.00;100.00
11936;BME280;6027;48.576;9.180;2023-08-20T03:27:38;97280.38;;;21.01;100.00
11936;BME280;6027;48.576;9.180;2023-08-20T03:30:04;97273.34;;;21.00;100.00
11936;BME280;6027;48.576;9.180;2023-08-20T03:32:31;97271.94;;;20.98;100.00
11936;BME280;6027;48.576;9.180;2023-08-20T03:34:57;97274.75;;;21.03;100.00
11936;BME280;6027;48.576;9.180;2023-08-20T03:37:25;97272.53;;;21.00;100.00
11936;BME280;6027;48.576;9.180;2023-08-20T03:39:50;97276.19;;;20.94;100.00
11936;BME280;6027;48.576;9.180;2023-08-20T03:42:16;97279.94;;;20.93;100.00
11936;BME280;6027;48.576;9.180;2023-08-20T03:44:41;97289.53;;;20.89;100.00
11936;BME280;6027;48.576;9.180;2023-08-20T03:47:07;97283.69;;;20.92;100.00
11936;BME280;6027;48.576;9.180;2023-08-20T03:49:32;97295.03;;;20.82;100.00
11936;BME280;6027;48.576;9.180;2023-08-20T03:51:58;97289.31;;;20.79;100.00
11936;BME280;6027;48.576;9.180;2023-08-20T03:54:23;97281.63;;;20.71;100.00
11936;BME280;6027;48.576;9.180;2023-08-20T03:56:49;97276.69;;;20.67;100.00
11936;BME280;6027;48.576;9.180;2023-08-20T03:59:14;97268.88;;;20.66;100.00
11936;BME280;6027;48.576;9.180;2023-08-20T04:01:39;97275.06;;;20.66;100.00
11936;BME280;6027;48.576;9.180;2023-08-20T04:04:05;97271.31;;;20.67;100.00
11936;BME280;6027;48.576;9.180;2023-08-20T04:06:30;97270.84;;;20.71;100.00
11936;BME280;6027;48.576;9.180;2023-08-20T04:08:56;97272.84;;;20.63;100.00
11936;BME280;6027;48.576;9.180;2023-08-20T04:11:21;97276.13;;;20.65;100.00
11936;BME280;6027;48.576;9.180;2023-08-20T04:13:47;97259.75;;;20.67;100.00
11936;BME280;6027;48.576;9.180;2023-08-20T04:16:13;97261.72;;;20.72;100.00
11936;BME280;6027;48.576;9.180;2023-08-20T04:18:39;97262.53;;;20.72;100.00
11936;BME280;6027;48.576;9.180;2023-08-20T04:21:04;97265.47;;;20.71;100.00
11936;BME280;6027;48.576;9.180;2023-08-20T04:23:30;97262.19;;;20.68;100.00
11936;BME280;6027;48.576;9.180;2023-08-20T04:25:55;97267.47;;;20.75;100.00
11936;BME280;6027;48.576;9.180;2023-08-20T04:28:21;97280.69;;;20.77;100.00
11936;BME280;6027;48.576;9.180;2023-08-20T04:30:46;97284.75;;;20.79;100.00
11936;BME280;6027;48.576;9.180;2023-08-20T04:33:12;97276.34;;;20.76;100.00
11936;BME280;6027;48.576;9.180;2023-08-20T04:35:38;97281.22;;;20.79;100.00
11936;BME280;6027;48.576;9.180;2023-08-20T04:38:03;97279.38;;;20.79;100.00
11936;BME280;6027;48.576;9.180;2023-08-20T04:40:29;97283.13;;;20.78;100.00
11936;BME280;6027;48.576;9.180;2023-08-20T04:42:54;97288.88;;;20.70;100.00
11936;BME280;6027;48.576;9.180;2023-08-20T04:45:20;97281.25;;;20.67;100.00
11936;BME280;6027;48.576;9.180;2023-08-20T04:47:46;97281.50;;;20.65;100.00
11936;BME280;6027;48.576;9.180;2023-08-20T04:50:11;97284.19;;;20.65;100.00
11936;BME280;6027;48.576;9.180;2023-08-20T04:52:38;97292.50;;;20.76;100.00
11936;BME280;6027;48.576;9.180;2023-08-20T04:55:04;97291.00;;;20.56;100.00
11936;BME280;6027;48.576;9.180;2023-08-20T04:57:29;97295.09;;;20.59;100.00
11936;BME280;6027;48.576;9.180;2023-08-20T04:59:55;97292.97;;;20.49;100.00
11936;BME280;6027;48.576;9.180;2023-08-20T05:02:21;97294.63;;;20.50;100.00
11936;BME280;6027;48.576;9.180;2023-08-20T05:04:46;97303.88;;;20.54;100.00
11936;BME280;6027;48.576;9.180;2023-08-20T05:07:12;97314.03;;;20.52;100.00
11936;BME280;6027;48.576;9.180;2023-08-20T05:09:37;97321.97;;;20.47;100.00
11936;BME280;6027;48.576;9.180;2023-08-20T05:12:03;97327.00;;;20.44;100.00
11936;BME280;6027;48.576;9.180;2023-08-20T05:14:29;97317.78;;;20.40;100.00
11936;BME280;6027;48.576;9.180;2023-08-20T05:16:55;97316.38;;;20.37;100.00
11936;BME280;6027;48.576;9.180;2023-08-20T05:19:20;97306.53;;;20.43;100.00
11936;BME280;6027;48.576;9.180;2023-08-20T05:21:46;97308.88;;;20.51;100.00
11936;BME280;6027;48.576;9.180;2023-08-20T05:24:12;97306.09;;;20.57;100.00
11936;BME280;6027;48.576;9.180;2023-08-20T05:26:37;97307.72;;;20.58;100.00
11936;BME280;6027;48.576;9.180;2023-08-20T05:29:03;97302.91;;;20.60;100.00
11936;BME280;6027;48.576;9.180;2023-08-20T05:31:28;97294.47;;;20.68;100.00
11936;BME280;6027;48.576;9.180;2023-08-20T05:33:53;97300.34;;;20.77;100.00
11936;BME280;6027;48.576;9.180;2023-08-20T05:36:19;97289.41;;;20.84;100.00
11936;BME280;6027;48.576;9.180;2023-08-20T05:38:45;97284.03;;;20.84;100.00
11936;BME280;6027;48.576;9.180;2023-08-20T05:41:10;97297.25;;;20.85;100.00
11936;BME280;6027;48.576;9.180;2023-08-20T05:43:35;97306.78;;;20.76;100.00
11936;BME280;6027;48.576;9.180;2023-08-20T05:46:02;97311.22;;;20.71;100.00
11936;BME280;6027;48.576;9.180;2023-08-20T05:48:28;97324.66;;;20.47;100.00
11936;BME280;6027;48.576;9.180;2023-08-20T05:50:54;97321.41;;;20.45;100.00
11936;BME280;6027;48.576;9.180;2023-08-20T05:53:21;97325.03;;;20.51;100.00
11936;BME280;6027;48.576;9.180;2023-08-20T05:55:47;97308.53;;;20.59;100.00
11936;BME280;6027;48.576;9.180;2023-08-20T05:58:12;97321.03;;;20.65;100.00
11936;BME280;6027;48.576;9.180;2023-08-20T06:00:38;97322.00;;;20.59;100.00
11936;BME280;6027;48.576;9.180;2023-08-20T06:03:04;97321.84;;;20.65;100.00
11936;BME280;6027;48.576;9.180;2023-08-20T06:05:29;97329.34;;;20.63;100.00
11936;BME280;6027;48.576;9.180;2023-08-20T06:07:55;97332.16;;;20.57;100.00
11936;BME280;6027;48.576;9.180;2023-08-20T06:10:20;97334.38;;;20.60;100.00
11936;BME280;6027;48.576;9.180;2023-08-20T06:15:14;97321.50;;;20.62;100.00
11936;BME280;6027;48.576;9.180;2023-08-20T06:17:39;97321.38;;;20.68;100.00
11936;BME280;6027;48.576;9.180;2023-08-20T06:20:08;97321.75;;;20.72;100.00
11936;BME280;6027;48.576;9.180;2023-08-20T06:22:36;97326.75;;;20.80;100.00
11936;BME280;6027;48.576;9.180;2023-08-20T06:25:02;97326.88;;;20.85;100.00
11936;BME280;6027;48.576;9.180;2023-08-20T06:27:28;97332.25;;;20.85;100.00
11936;BME280;6027;48.576;9.180;2023-08-20T06:29:53;97338.53;;;21.02;100.00
11936;BME280;6027;48.576;9.180;2023-08-20T06:32:19;97342.41;;;21.07;100.00
11936;BME280;6027;48.576;9.180;2023-08-20T06:34:44;97333.16;;;21.14;100.00
11936;BME280;6027;48.576;9.180;2023-08-20T06:37:10;97330.69;;;21.24;100.00
11936;BME280;6027;48.576;9.180;2023-08-20T06:39:35;97326.88;;;21.37;100.00
11936;BME280;6027;48.576;9.180;2023-08-20T06:42:01;97325.47;;;21.46;100.00
11936;BME280;6027;48.576;9.180;2023-08-20T06:44:26;97326.44;;;21.57;100.00
11936;BME280;6027;48.576;9.180;2023-08-20T06:46:52;97334.16;;;21.65;100.00
11936;BME280;6027;48.576;9.180;2023-08-20T06:49:17;97339.66;;;21.70;100.00
11936;BME280;6027;48.576;9.180;2023-08-20T06:51:46;97346.03;;;21.81;100.00
11936;BME280;6027;48.576;9.180;2023-08-20T06:54:11;97351.09;;;21.77;100.00
11936;BME280;6027;48.576;9.180;2023-08-20T06:56:37;97345.13;;;21.75;100.00
11936;BME280;6027;48.576;9.180;2023-08-20T06:59:02;97345.31;;;21.85;100.00
11936;BME280;6027;48.576;9.180;2023-08-20T07:01:28;97335.75;;;21.94;100.00
11936;BME280;6027;48.576;9.180;2023-08-20T07:03:54;97341.22;;;21.83;100.00
11936;BME280;6027;48.576;9.180;2023-08-20T07:06:20;97349.66;;;21.86;100.00
11936;BME280;6027;48.576;9.180;2023-08-20T07:08:45;97351.00;;;22.00;100.00
11936;BME280;6027;48.576;9.180;2023-08-20T07:11:10;97349.22;;;22.06;100.00
11936;BME280;6027;48.576;9.180;2023-08-20T07:13:36;97352.31;;;22.15;100.00
11936;BME280;6027;48.576;9.180;2023-08-20T07:16:02;97348.41;;;22.22;100.00
11936;BME280;6027;48.576;9.180;2023-08-20T07:18:27;97356.41;;;22.34;100.00
11936;BME280;6027;48.576;9.180;2023-08-20T07:20:55;97359.78;;;22.41;100.00
11936;BME280;6027;48.576;9.180;2023-08-20T07:23:20;97359.53;;;22.43;100.00
11936;BME280;6027;48.576;9.180;2023-08-20T07:25:46;97364.00;;;22.54;100.00
11936;BME280;6027;48.576;9.180;2023-08-20T07:28:12;97355.44;;;22.57;100.00
11936;BME280;6027;48.576;9.180;2023-08-20T07:30:37;97356.19;;;22.69;100.00
11936;BME280;6027;48.576;9.180;2023-08-20T07:33:03;97361.00;;;22.67;100.00
11936;BME280;6027;48.576;9.180;2023-08-20T07:35:29;97373.72;;;22.71;100.00
11936;BME280;6027;48.576;9.180;2023-08-20T07:37:54;97371.81;;;22.84;100.00
11936;BME280;6027;48.576;9.180;2023-08-20T07:40:20;97373.19;;;22.86;100.00
11936;BME280;6027;48.576;9.180;2023-08-20T07:42:46;97382.50;;;22.95;100.00
11936;BME280;6027;48.576;9.180;2023-08-20T07:45:11;97380.69;;;23.01;100.00
11936;BME280;6027;48.576;9.180;2023-08-20T07:47:37;97381.38;;;23.13;100.00
11936;BME280;6027;48.576;9.180;2023-08-20T07:50:06;97376.69;;;23.25;100.00
11936;BME280;6027;48.576;9.180;2023-08-20T07:52:32;97373.69;;;23.22;100.00
11936;BME280;6027;48.576;9.180;2023-08-20T07:54:57;97387.00;;;23.28;100.00
11936;BME280;6027;48.576;9.180;2023-08-20T07:57:23;97386.22;;;23.33;100.00
11936;BME280;6027;48.576;9.180;2023-08-20T07:59:49;97385.00;;;23.40;100.00
11936;BME280;6027;48.576;9.180;2023-08-20T08:02:15;97383.34;;;23.39;100.00
11936;BME280;6027;48.576;9.180;2023-08-20T08:04:41;97386.16;;;23.50;100.00
11936;BME280;6027;48.576;9.180;2023-08-20T08:07:07;97389.03;;;23.60;100.00
11936;BME280;6027;48.576;9.180;2023-08-20T08:09:32;97389.59;;;23.62;100.00
11936;BME280;6027;48.576;9.180;2023-08-20T08:11:58;97390.75;;;23.66;100.00
11936;BME280;6027;48.576;9.180;2023-08-20T08:14:24;97402.66;;;23.70;100.00
11936;BME280;6027;48.576;9.180;2023-08-20T08:16:50;97393.97;;;23.68;100.00
11936;BME280;6027;48.576;9.180;2023-08-20T08:19:16;97394.63;;;23.75;100.00
11936;BME280;6027;48.576;9.180;2023-08-20T08:21:43;97395.03;;;23.89;100.00
11936;BME280;6027;48.576;9.180;2023-08-20T08:24:10;97390.00;;;23.97;100.00
11936;BME280;6027;48.576;9.180;2023-08-20T08:26:36;97400.09;;;24.07;100.00
11936;BME280;6027;48.576;9.180;2023-08-20T08:29:02;97400.09;;;24.07;100.00
11936;BME280;6027;48.576;9.180;2023-08-20T08:31:28;97399.06;;;24.13;100.00
11936;BME280;6027;48.576;9.180;2023-08-20T08:33:54;97396.56;;;24.06;100.00
11936;BME280;6027;48.576;9.180;2023-08-20T08:36:19;97410.66;;;24.08;100.00
11936;BME280;6027;48.576;9.180;2023-08-20T08:38:45;97409.94;;;24.18;100.00
11936;BME280;6027;48.576;9.180;2023-08-20T08:41:12;97405.66;;;24.22;100.00
11936;BME280;6027;48.576;9.180;2023-08-20T08:43:41;97403.28;;;24.26;100.00
11936;BME280;6027;48.576;9.180;2023-08-20T08:46:13;97402.25;;;24.32;100.00
11936;BME280;6027;48.576;9.180;2023-08-20T08:48:45;97400.63;;;24.31;100.00
11936;BME280;6027;48.576;9.180;2023-08-20T08:51:13;97391.28;;;24.43;100.00
11936;BME280;6027;48.576;9.180;2023-08-20T08:53:38;97402.69;;;24.51;100.00
11936;BME280;6027;48.576;9.180;2023-08-20T08:56:04;97394.16;;;24.69;100.00
11936;BME280;6027;48.576;9.180;2023-08-20T08:58:32;97406.94;;;24.73;100.00
11936;BME280;6027;48.576;9.180;2023-08-20T09:00:58;97398.84;;;24.78;100.00
11936;BME280;6027;48.576;9.180;2023-08-20T09:03:24;97403.06;;;24.96;100.00
11936;BME280;6027;48.576;9.180;2023-08-20T09:05:58;97397.38;;;24.98;100.00
11936;BME280;6027;48.576;9.180;2023-08-20T09:08:32;97409.88;;;25.04;100.00
11936;BME280;6027;48.576;9.180;2023-08-20T09:10:59;97407.75;;;25.11;100.00
11936;BME280;6027;48.576;9.180;2023-08-20T09:13:33;97409.16;;;25.19;100.00
11936;BME280;6027;48.576;9.180;2023-08-20T09:15:58;97399.19;;;25.29;100.00
11936;BME280;6027;48.576;9.180;2023-08-20T09:18:24;97400.84;;;25.40;100.00
11936;BME280;6027;48.576;9.180;2023-08-20T09:20:49;97400.38;;;25.54;100.00
11936;BME280;6027;48.576;9.180;2023-08-20T09:23:15;97402.56;;;25.62;100.00
11936;BME280;6027;48.576;9.180;2023-08-20T09:25:44;97401.28;;;25.69;100.00
11936;BME280;6027;48.576;9.180;2023-08-20T09:28:10;97402.66;;;25.72;100.00
11936;BME280;6027;48.576;9.180;2023-08-20T09:30:36;97411.09;;;25.86;100.00
11936;BME280;6027;48.576;9.180;2023-08-20T09:35:29;97405.41;;;25.87;100.00
11936;BME280;6027;48.576;9.180;2023-08-20T09:37:59;97395.66;;;26.01;100.00
11936;BME280;6027;48.576;9.180;2023-08-20T09:40:24;97409.00;;;26.13;100.00
11936;BME280;6027;48.576;9.180;2023-08-20T09:42:51;97398.41;;;26.11;100.00
11936;BME280;6027;48.576;9.180;2023-08-20T09:45:19;97402.22;;;26.15;100.00
11936;BME280;6027;48.576;9.180;2023-08-20T09:47:48;97401.69;;;26.13;100.00
11936;BME280;6027;48.576;9.180;2023-08-20T09:50:17;97406.84;;;26.15;100.00
11936;BME280;6027;48.576;9.180;2023-08-20T09:52:57;97398.94;;;26.08;100.00
11936;BME280;6027;48.576;9.180;2023-08-20T09:55:32;97395.16;;;26.20;100.00
11936;BME280;6027;48.576;9.180;2023-08-20T09:58:01;97404.69;;;26.27;100.00
11936;BME280;6027;48.576;9.180;2023-08-20T10:00:27;97398.47;;;26.47;100.00
11936;BME280;6027;48.576;9.180;2023-08-20T10:02:53;97400.91;;;26.43;100.00
11936;BME280;6027;48.576;9.180;2023-08-20T10:05:19;97394.66;;;26.58;100.00
11936;BME280;6027;48.576;9.180;2023-08-20T10:07:47;97404.72;;;26.58;97.97
11936;BME280;6027;48.576;9.180;2023-08-20T10:10:12;97393.03;;;26.57;98.61
11936;BME280;6027;48.576;9.180;2023-08-20T10:12:39;97397.13;;;26.60;100.00
11936;BME280;6027;48.576;9.180;2023-08-20T10:15:07;97391.44;;;26.71;100.00
11936;BME280;6027;48.576;9.180;2023-08-20T10:17:33;97392.50;;;26.80;100.00
11936;BME280;6027;48.576;9.180;2023-08-20T10:20:01;97396.84;;;26.71;100.00
11936;BME280;6027;48.576;9.180;2023-08-20T10:22:42;97384.06;;;26.82;100.00
11936;BME280;6027;48.576;9.180;2023-08-20T10:25:22;97390.03;;;26.84;100.00
11936;BME280;6027;48.576;9.180;2023-08-20T10:27:48;97392.75;;;26.89;96.77
11936;BME280;6027;48.576;9.180;2023-08-20T10:30:18;97383.78;;;26.89;96.71
11936;BME280;6027;48.576;9.180;2023-08-20T10:32:49;97378.91;;;26.96;97.93
11936;BME280;6027;48.576;9.180;2023-08-20T10:35:16;97390.31;;;27.13;93.38
11936;BME280;6027;48.576;9.180;2023-08-20T10:38:04;97390.31;;;27.08;93.90
11936;BME280;6027;48.576;9.180;2023-08-20T10:43:46;97399.00;;;27.10;93.28
11936;BME280;6027;48.576;9.180;2023-08-20T10:46:14;97390.81;;;27.15;90.62
11936;BME280;6027;48.576;9.180;2023-08-20T10:48:41;97385.09;;;27.16;91.01
11936;BME280;6027;48.576;9.180;2023-08-20T10:53:36;97382.09;;;27.23;91.66
11936;BME280;6027;48.576;9.180;2023-08-20T10:56:15;97384.53;;;27.30;93.11
11936;BME280;6027;48.576;9.180;2023-08-20T10:58:45;97388.03;;;27.35;98.68
11936;BME280;6027;48.576;9.180;2023-08-20T11:01:21;97383.66;;;27.49;96.22
11936;BME280;6027;48.576;9.180;2023-08-20T11:03:50;97380.63;;;27.56;93.13
11936;BME280;6027;48.576;9.180;2023-08-20T11:06:17;97382.53;;;27.66;88.20
11936;BME280;6027;48.576;9.180;2023-08-20T11:08:44;97381.91;;;27.79;87.50
11936;BME280;6027;48.576;9.180;2023-08-20T11:11:10;97384.66;;;27.74;88.93
11936;BME280;6027;48.576;9.180;2023-08-20T11:13:36;97380.84;;;27.75;87.45
11936;BME280;6027;48.576;9.180;2023-08-20T11:16:02;97379.25;;;27.69;88.36
11936;BME280;6027;48.576;9.180;2023-08-20T11:18:28;97377.03;;;27.76;88.57
11936;BME280;6027;48.576;9.180;2023-08-20T11:20:54;97370.44;;;27.87;85.10
11936;BME280;6027;48.576;9.180;2023-08-20T11:23:20;97382.69;;;27.90;88.54
11936;BME280;6027;48.576;9.180;2023-08-20T11:25:46;97367.94;;;27.91;88.95
11936;BME280;6027;48.576;9.180;2023-08-20T11:28:12;97377.47;;;27.93;88.18
11936;BME280;6027;48.576;9.180;2023-08-20T11:30:38;97373.34;;;28.01;86.05
11936;BME280;6027;48.576;9.180;2023-08-20T11:33:03;97366.56;;;27.98;84.09
11936;BME280;6027;48.576;9.180;2023-08-20T11:35:29;97366.53;;;28.03;88.42
11936;BME280;6027;48.576;9.180;2023-08-20T11:37:55;97372.16;;;28.17;85.73
11936;BME280;6027;48.576;9.180;2023-08-20T11:40:21;97360.97;;;28.18;85.68
11936;BME280;6027;48.576;9.180;2023-08-20T11:42:48;97366.50;;;28.08;83.65
11936;BME280;6027;48.576;9.180;2023-08-20T11:45:14;97362.88;;;28.18;82.91
11936;BME280;6027;48.576;9.180;2023-08-20T11:47:40;97370.22;;;28.28;83.42
11936;BME280;6027;48.576;9.180;2023-08-20T11:50:06;97364.22;;;28.26;80.99
11936;BME280;6027;48.576;9.180;2023-08-20T11:52:32;97364.13;;;28.36;78.39
11936;BME280;6027;48.576;9.180;2023-08-20T11:54:59;97365.38;;;28.48;81.37
11936;BME280;6027;48.576;9.180;2023-08-20T11:57:25;97353.94;;;28.51;78.88
11936;BME280;6027;48.576;9.180;2023-08-20T11:59:51;97359.63;;;28.55;81.59
11936;BME280;6027;48.576;9.180;2023-08-20T12:02:27;97358.72;;;28.65;72.56
11936;BME280;6027;48.576;9.180;2023-08-20T12:04:55;97353.00;;;28.66;71.42
11936;BME280;6027;48.576;9.180;2023-08-20T12:07:25;97352.69;;;28.68;73.50
11936;BME280;6027;48.576;9.180;2023-08-20T12:09:50;97349.63;;;28.74;73.31
11936;BME280;6027;48.576;9.180;2023-08-20T12:12:19;97346.91;;;28.74;73.37
11936;BME280;6027;48.576;9.180;2023-08-20T12:14:45;97347.44;;;28.76;85.04
11936;BME280;6027;48.576;9.180;2023-08-20T12:17:10;97342.34;;;28.99;75.03
11936;BME280;6027;48.576;9.180;2023-08-20T12:19:36;97336.19;;;29.12;70.04
11936;BME280;6027;48.576;9.180;2023-08-20T12:22:01;97339.50;;;29.09;70.85
11936;BME280;6027;48.576;9.180;2023-08-20T12:24:27;97338.75;;;29.03;71.66
11936;BME280;6027;48.576;9.180;2023-08-20T12:26:52;97346.66;;;29.05;73.58
11936;BME280;6027;48.576;9.180;2023-08-20T12:29:18;97340.06;;;29.06;70.94
11936;BME280;6027;48.576;9.180;2023-08-20T12:31:43;97336.47;;;29.10;69.37
11936;BME280;6027;48.576;9.180;2023-08-20T12:34:09;97329.88;;;29.16;68.67
11936;BME280;6027;48.576;9.180;2023-08-20T12:36:34;97324.66;;;29.20;68.09
11936;BME280;6027;48.576;9.180;2023-08-20T12:39:00;97332.53;;;29.21;66.39
11936;BME280;6027;48.576;9.180;2023-08-20T12:41:25;97318.81;;;29.27;68.75
11936;BME280;6027;48.576;9.180;2023-08-20T12:43:51;97322.06;;;29.29;68.50
11936;BME280;6027;48.576;9.180;2023-08-20T12:46:17;97316.25;;;29.40;69.59
11936;BME280;6027;48.576;9.180;2023-08-20T12:48:42;97312.72;;;29.40;65.22
11936;BME280;6027;48.576;9.180;2023-08-20T12:53:35;97314.66;;;29.58;67.69
11936;BME280;6027;48.576;9.180;2023-08-20T12:56:01;97312.34;;;29.65;64.37
11936;BME280;6027;48.576;9.180;2023-08-20T12:58:26;97310.22;;;29.62;64.59
11936;BME280;6027;48.576;9.180;2023-08-20T13:00:52;97313.31;;;29.55;66.38
11936;BME280;6027;48.576;9.180;2023-08-20T13:03:18;97308.97;;;29.54;67.33
11936;BME280;6027;48.576;9.180;2023-08-20T13:05:44;97304.53;;;29.59;64.82
11936;BME280;6027;48.576;9.180;2023-08-20T13:08:10;97309.41;;;29.62;65.28
11936;BME280;6027;48.576;9.180;2023-08-20T13:10:41;97312.97;;;29.62;63.29
11936;BME280;6027;48.576;9.180;2023-08-20T13:13:09;97304.91;;;29.71;62.39
11936;BME280;6027;48.576;9.180;2023-08-20T13:15:36;97296.50;;;29.67;64.66
11936;BME280;6027;48.576;9.180;2023-08-20T13:18:02;97302.19;;;29.71;69.42